sensor_id;sensor_type;location;lat;lon;timestamp;temperature;humidity
4308;DHT22;2167;53.448;9.984;2022-12-18T00:01:34;-4.10;6.10
4308;DHT22;2167;53.448;9.984;2022-12-18T00:04:01;-4.20;6.50
4308;DHT22;2167;53.448;9.984;2022-12-18T00:06:29;-4.20;7.30
4308;DHT22;2167;53.448;9.984;2022-12-18T00:08:56;-4.30;7.50
4308;DHT22;2167;53.448;9.984;2022-12-18T00:11:24;-4.30;8.00
4308;DHT22;2167;53.448;9.984;2022-12-18T00:13:51;-4.30;8.80
4308;DHT22;2167;53.448;9.984;2022-12-18T00:16:19;-4.30;10.00
4308;DHT22;2167;53.448;9.984;2022-12-18T00:18:46;-4.30;10.00
4308;DHT22;2167;53.448;9.984;2022-12-18T00:21:14;-4.30;10.10
4308;DHT22;2167;53.448;9.984;2022-12-18T00:23:42;-4.30;10.00
4308;DHT22;2167;53.448;9.984;2022-12-18T00:26:35;-4.40;9.70
4308;DHT22;2167;53.448;9.984;2022-12-18T00:29:08;-4.40;8.60
4308;DHT22;2167;53.448;9.984;2022-12-18T00:31:35;-4.50;8.10
4308;DHT22;2167;53.448;9.984;2022-12-18T00:34:01;-4.60;7.40
4308;DHT22;2167;53.448;9.984;2022-12-18T00:36:32;-4.60;7.30
4308;DHT22;2167;53.448;9.984;2022-12-18T00:39:00;-4.60;7.70
4308;DHT22;2167;53.448;9.984;2022-12-18T00:41:27;-4.70;7.20
4308;DHT22;2167;53.448;9.984;2022-12-18T00:44:14;-4.80;6.80
4308;DHT22;2167;53.448;9.984;2022-12-18T00:46:41;-4.80;6.70
4308;DHT22;2167;53.448;9.984;2022-12-18T00:49:08;-4.90;6.40
4308;DHT22;2167;53.448;9.984;2022-12-18T00:51:33;-4.90;6.20
4308;DHT22;2167;53.448;9.984;2022-12-18T00:53:59;-4.90;5.90
4308;DHT22;2167;53.448;9.984;2022-12-18T00:56:25;-5.00;5.50
4308;DHT22;2167;53.448;9.984;2022-12-18T00:58:51;-5.00;5.00
4308;DHT22;2167;53.448;9.984;2022-12-18T01:01:16;-5.00;5.50
4308;DHT22;2167;53.448;9.984;2022-12-18T01:03:42;-5.10;5.70
4308;DHT22;2167;53.448;9.984;2022-12-18T01:06:11;-5.20;5.70
4308;DHT22;2167;53.448;9.984;2022-12-18T01:08:37;-5.30;5.70
4308;DHT22;2167;53.448;9.984;2022-12-18T01:11:12;-5.30;5.50
4308;DHT22;2167;53.448;9.984;2022-12-18T01:13:39;-5.40;5.50
4308;DHT22;2167;53.448;9.984;2022-12-18T01:16:05;-5.40;6.10
4308;DHT22;2167;53.448;9.984;2022-12-18T01:18:31;-5.40;6.80
4308;DHT22;2167;53.448;9.984;2022-12-18T01:20:59;-5.50;7.80
4308;DHT22;2167;53.448;9.984;2022-12-18T01:23:28;-5.50;8.70
4308;DHT22;2167;53.448;9.984;2022-12-18T01:25:54;-5.50;9.80
4308;DHT22;2167;53.448;9.984;2022-12-18T01:28:19;-5.30;10.70
4308;DHT22;2167;53.448;9.984;2022-12-18T01:30:45;-5.30;11.60
4308;DHT22;2167;53.448;9.984;2022-12-18T01:33:11;-5.20;12.30
4308;DHT22;2167;53.448;9.984;2022-12-18T01:35:43;-5.20;12.90
4308;DHT22;2167;53.448;9.984;2022-12-18T01:38:09;-5.10;12.90
4308;DHT22;2167;53.448;9.984;2022-12-18T01:40:35;-5.00;12.30
4308;DHT22;2167;53.448;9.984;2022-12-18T01:43:00;-5.10;11.60
4308;DHT22;2167;53.448;9.984;2022-12-18T01:45:28;-5.10;11.00
4308;DHT22;2167;53.448;9.984;2022-12-18T01:48:06;-5.20;11.10
4308;DHT22;2167;53.448;9.984;2022-12-18T01:50:42;-5.20;11.40
4308;DHT22;2167;53.448;9.984;2022-12-18T01:53:15;-5.20;11.30
4308;DHT22;2167;53.448;9.984;2022-12-18T01:55:48;-5.20;11.60
4308;DHT22;2167;53.448;9.984;2022-12-18T01:58:15;-5.10;11.10
4308;DHT22;2167;53.448;9.984;2022-12-18T02:00:41;-5.10;10.10
4308;DHT22;2167;53.448;9.984;2022-12-18T02:03:07;-5.20;9.80
4308;DHT22;2167;53.448;9.984;2022-12-18T02:16:19;-5.30;13.00
4308;DHT22;2167;53.448;9.984;2022-12-18T02:18:50;-5.20;13.30
4308;DHT22;2167;53.448;9.984;2022-12-18T02:21:49;-5.20;12.80
4308;DHT22;2167;53.448;9.984;2022-12-18T02:26:59;-5.30;11.40
4308;DHT22;2167;53.448;9.984;2022-12-18T02:29:31;-5.40;10.70
4308;DHT22;2167;53.448;9.984;2022-12-18T02:32:02;-5.40;10.90
4308;DHT22;2167;53.448;9.984;2022-12-18T02:34:33;-5.40;11.50
4308;DHT22;2167;53.448;9.984;2022-12-18T02:37:03;-5.40;12.30
4308;DHT22;2167;53.448;9.984;2022-12-18T02:39:31;-5.40;13.00
4308;DHT22;2167;53.448;9.984;2022-12-18T02:41:58;-5.40;13.10
4308;DHT22;2167;53.448;9.984;2022-12-18T02:44:24;-5.40;12.50
4308;DHT22;2167;53.448;9.984;2022-12-18T02:46:52;-5.40;11.90
4308;DHT22;2167;53.448;9.984;2022-12-18T02:49:40;-5.40;11.30
4308;DHT22;2167;53.448;9.984;2022-12-18T02:52:31;-5.50;11.40
4308;DHT22;2167;53.448;9.984;2022-12-18T03:03:31;-5.40;13.60
4308;DHT22;2167;53.448;9.984;2022-12-18T03:06:08;-5.40;13.20
4308;DHT22;2167;53.448;9.984;2022-12-18T03:08:45;-5.40;12.80
4308;DHT22;2167;53.448;9.984;2022-12-18T03:11:13;-5.50;12.20
4308;DHT22;2167;53.448;9.984;2022-12-18T03:13:47;-5.50;11.80
4308;DHT22;2167;53.448;9.984;2022-12-18T03:16:20;-5.50;11.50
4308;DHT22;2167;53.448;9.984;2022-12-18T03:19:01;-5.50;11.30
4308;DHT22;2167;53.448;9.984;2022-12-18T03:21:43;-5.50;10.70
4308;DHT22;2167;53.448;9.984;2022-12-18T03:24:09;-5.60;9.60
4308;DHT22;2167;53.448;9.984;2022-12-18T03:26:40;-5.60;9.50
4308;DHT22;2167;53.448;9.984;2022-12-18T03:29:17;-5.60;9.50
4308;DHT22;2167;53.448;9.984;2022-12-18T03:31:48;-5.50;9.80
4308;DHT22;2167;53.448;9.984;2022-12-18T03:34:20;-5.60;9.60
4308;DHT22;2167;53.448;9.984;2022-12-18T03:36:47;-5.60;9.00
4308;DHT22;2167;53.448;9.984;2022-12-18T03:39:13;-5.60;8.90
4308;DHT22;2167;53.448;9.984;2022-12-18T03:42:04;-5.70;8.80
4308;DHT22;2167;53.448;9.984;2022-12-18T03:45:19;-5.70;8.50
4308;DHT22;2167;53.448;9.984;2022-12-18T03:55:32;-6.00;7.60
4308;DHT22;2167;53.448;9.984;2022-12-18T03:58:01;-6.00;7.90
4308;DHT22;2167;53.448;9.984;2022-12-18T04:00:27;-6.10;8.00
4308;DHT22;2167;53.448;9.984;2022-12-18T04:02:55;-6.10;8.10
4308;DHT22;2167;53.448;9.984;2022-12-18T04:05:25;-6.10;8.30
4308;DHT22;2167;53.448;9.984;2022-12-18T04:07:53;-6.10;8.50
4308;DHT22;2167;53.448;9.984;2022-12-18T04:10:20;-6.10;8.70
4308;DHT22;2167;53.448;9.984;2022-12-18T04:12:45;-6.10;8.70
4308;DHT22;2167;53.448;9.984;2022-12-18T04:15:12;-6.20;9.00
4308;DHT22;2167;53.448;9.984;2022-12-18T04:17:42;-6.20;9.40
4308;DHT22;2167;53.448;9.984;2022-12-18T04:20:11;-6.20;10.10
4308;DHT22;2167;53.448;9.984;2022-12-18T04:22:37;-6.20;9.80
4308;DHT22;2167;53.448;9.984;2022-12-18T04:25:03;-6.20;9.50
4308;DHT22;2167;53.448;9.984;2022-12-18T04:27:28;-6.20;9.40
4308;DHT22;2167;53.448;9.984;2022-12-18T04:29:54;-6.30;9.60
4308;DHT22;2167;53.448;9.984;2022-12-18T04:32:20;-6.30;9.90
4308;DHT22;2167;53.448;9.984;2022-12-18T04:34:45;-6.30;10.40
4308;DHT22;2167;53.448;9.984;2022-12-18T04:37:11;-6.30;10.50
4308;DHT22;2167;53.448;9.984;2022-12-18T04:39:36;-6.40;10.70
4308;DHT22;2167;53.448;9.984;2022-12-18T04:42:02;-6.40;11.20
4308;DHT22;2167;53.448;9.984;2022-12-18T04:44:28;-6.40;12.10
4308;DHT22;2167;53.448;9.984;2022-12-18T04:46:54;-6.40;13.20
4308;DHT22;2167;53.448;9.984;2022-12-18T04:49:19;-6.40;13.70
4308;DHT22;2167;53.448;9.984;2022-12-18T04:51:45;-6.40;13.90
4308;DHT22;2167;53.448;9.984;2022-12-18T04:54:10;-6.40;14.10
4308;DHT22;2167;53.448;9.984;2022-12-18T04:56:36;-6.40;13.90
4308;DHT22;2167;53.448;9.984;2022-12-18T04:59:01;-6.30;13.80
4308;DHT22;2167;53.448;9.984;2022-12-18T05:01:27;-6.30;13.50
4308;DHT22;2167;53.448;9.984;2022-12-18T05:03:52;-6.30;13.20
4308;DHT22;2167;53.448;9.984;2022-12-18T05:06:18;-6.30;13.00
4308;DHT22;2167;53.448;9.984;2022-12-18T05:08:44;-6.30;12.60
4308;DHT22;2167;53.448;9.984;2022-12-18T05:11:12;-6.30;12.80
4308;DHT22;2167;53.448;9.984;2022-12-18T05:13:41;-6.30;12.70
4308;DHT22;2167;53.448;9.984;2022-12-18T05:16:07;-6.30;12.60
4308;DHT22;2167;53.448;9.984;2022-12-18T05:18:34;-6.30;12.20
4308;DHT22;2167;53.448;9.984;2022-12-18T05:21:00;-6.40;11.60
4308;DHT22;2167;53.448;9.984;2022-12-18T05:23:26;-6.40;11.30
4308;DHT22;2167;53.448;9.984;2022-12-18T05:25:57;-6.40;11.20
4308;DHT22;2167;53.448;9.984;2022-12-18T05:28:24;-6.50;10.80
4308;DHT22;2167;53.448;9.984;2022-12-18T05:30:55;-6.50;10.50
4308;DHT22;2167;53.448;9.984;2022-12-18T05:33:22;-6.50;10.10
4308;DHT22;2167;53.448;9.984;2022-12-18T05:35:52;-6.60;9.50
4308;DHT22;2167;53.448;9.984;2022-12-18T05:38:19;-6.60;10.00
4308;DHT22;2167;53.448;9.984;2022-12-18T05:40:44;-6.70;9.30
4308;DHT22;2167;53.448;9.984;2022-12-18T05:43:10;-6.70;9.60
4308;DHT22;2167;53.448;9.984;2022-12-18T05:45:38;-6.70;9.40
4308;DHT22;2167;53.448;9.984;2022-12-18T05:48:04;-6.70;9.20
4308;DHT22;2167;53.448;9.984;2022-12-18T05:50:30;-6.80;9.30
4308;DHT22;2167;53.448;9.984;2022-12-18T05:52:56;-6.80;9.50
4308;DHT22;2167;53.448;9.984;2022-12-18T05:55:21;-6.80;9.60
4308;DHT22;2167;53.448;9.984;2022-12-18T05:57:49;-6.80;9.60
4308;DHT22;2167;53.448;9.984;2022-12-18T06:00:15;-6.80;10.20
4308;DHT22;2167;53.448;9.984;2022-12-18T06:02:41;-6.70;10.90
4308;DHT22;2167;53.448;9.984;2022-12-18T06:05:06;-6.70;11.10
4308;DHT22;2167;53.448;9.984;2022-12-18T06:07:32;-6.70;11.10
4308;DHT22;2167;53.448;9.984;2022-12-18T06:09:58;-6.70;11.30
4308;DHT22;2167;53.448;9.984;2022-12-18T06:12:23;-6.70;11.60
4308;DHT22;2167;53.448;9.984;2022-12-18T06:14:49;-6.70;12.50
4308;DHT22;2167;53.448;9.984;2022-12-18T06:17:14;-6.60;13.20
4308;DHT22;2167;53.448;9.984;2022-12-18T06:19:40;-6.60;13.40
4308;DHT22;2167;53.448;9.984;2022-12-18T06:22:06;-6.60;13.50
4308;DHT22;2167;53.448;9.984;2022-12-18T06:24:31;-6.60;13.40
4308;DHT22;2167;53.448;9.984;2022-12-18T06:26:58;-6.60;13.20
4308;DHT22;2167;53.448;9.984;2022-12-18T06:29:24;-6.60;12.50
4308;DHT22;2167;53.448;9.984;2022-12-18T06:31:50;-6.60;11.90
4308;DHT22;2167;53.448;9.984;2022-12-18T06:34:16;-6.60;11.50
4308;DHT22;2167;53.448;9.984;2022-12-18T06:36:41;-6.70;11.50
4308;DHT22;2167;53.448;9.984;2022-12-18T06:39:08;-6.80;11.70
4308;DHT22;2167;53.448;9.984;2022-12-18T06:41:34;-6.80;11.80
4308;DHT22;2167;53.448;9.984;2022-12-18T06:43:59;-6.80;12.20
4308;DHT22;2167;53.448;9.984;2022-12-18T06:46:25;-6.90;12.70
4308;DHT22;2167;53.448;9.984;2022-12-18T06:48:51;-6.90;13.10
4308;DHT22;2167;53.448;9.984;2022-12-18T06:51:22;-6.90;13.50
4308;DHT22;2167;53.448;9.984;2022-12-18T06:53:48;-6.90;13.70
4308;DHT22;2167;53.448;9.984;2022-12-18T06:56:13;-6.80;13.70
4308;DHT22;2167;53.448;9.984;2022-12-18T06:58:39;-6.80;13.10
4308;DHT22;2167;53.448;9.984;2022-12-18T07:01:07;-6.80;12.40
4308;DHT22;2167;53.448;9.984;2022-12-18T07:03:34;-6.90;12.00
4308;DHT22;2167;53.448;9.984;2022-12-18T07:05:59;-7.00;12.30
4308;DHT22;2167;53.448;9.984;2022-12-18T07:08:25;-7.10;12.80
4308;DHT22;2167;53.448;9.984;2022-12-18T07:10:51;-7.10;13.30
4308;DHT22;2167;53.448;9.984;2022-12-18T07:13:18;-7.10;13.70
4308;DHT22;2167;53.448;9.984;2022-12-18T07:15:44;-7.10;14.10
4308;DHT22;2167;53.448;9.984;2022-12-18T07:18:09;-7.10;14.30
4308;DHT22;2167;53.448;9.984;2022-12-18T07:20:35;-7.00;13.90
4308;DHT22;2167;53.448;9.984;2022-12-18T07:23:05;-7.00;13.40
4308;DHT22;2167;53.448;9.984;2022-12-18T07:25:34;-7.10;13.10
4308;DHT22;2167;53.448;9.984;2022-12-18T07:28:00;-7.10;13.20
4308;DHT22;2167;53.448;9.984;2022-12-18T07:30:25;-7.10;13.30
4308;DHT22;2167;53.448;9.984;2022-12-18T07:32:51;-7.10;13.70
4308;DHT22;2167;53.448;9.984;2022-12-18T07:35:17;-7.00;14.00
4308;DHT22;2167;53.448;9.984;2022-12-18T07:37:42;-6.90;14.20
4308;DHT22;2167;53.448;9.984;2022-12-18T07:40:08;-6.90;14.20
4308;DHT22;2167;53.448;9.984;2022-12-18T07:42:34;-6.80;13.80
4308;DHT22;2167;53.448;9.984;2022-12-18T07:45:02;-6.80;14.10
4308;DHT22;2167;53.448;9.984;2022-12-18T07:47:35;-6.70;13.80
4308;DHT22;2167;53.448;9.984;2022-12-18T07:50:02;-6.60;12.80
4308;DHT22;2167;53.448;9.984;2022-12-18T07:52:28;-6.70;12.70
4308;DHT22;2167;53.448;9.984;2022-12-18T07:54:54;-6.70;13.00
4308;DHT22;2167;53.448;9.984;2022-12-18T07:57:19;-6.60;13.10
4308;DHT22;2167;53.448;9.984;2022-12-18T07:59:45;-6.50;13.20
4308;DHT22;2167;53.448;9.984;2022-12-18T08:02:10;-6.50;13.00
4308;DHT22;2167;53.448;9.984;2022-12-18T08:04:36;-6.50;13.50
4308;DHT22;2167;53.448;9.984;2022-12-18T08:07:02;-6.50;14.00
4308;DHT22;2167;53.448;9.984;2022-12-18T08:09:27;-6.50;14.40
4308;DHT22;2167;53.448;9.984;2022-12-18T08:11:53;-6.50;14.80
4308;DHT22;2167;53.448;9.984;2022-12-18T08:14:18;-6.50;15.30
4308;DHT22;2167;53.448;9.984;2022-12-18T08:16:44;-6.40;15.60
4308;DHT22;2167;53.448;9.984;2022-12-18T08:19:10;-6.30;15.70
4308;DHT22;2167;53.448;9.984;2022-12-18T08:21:35;-6.20;16.00
4308;DHT22;2167;53.448;9.984;2022-12-18T08:24:01;-6.10;16.30
4308;DHT22;2167;53.448;9.984;2022-12-18T08:26:29;-5.90;16.00
4308;DHT22;2167;53.448;9.984;2022-12-18T08:28:56;-5.80;15.00
4308;DHT22;2167;53.448;9.984;2022-12-18T08:31:22;-5.70;14.40
4308;DHT22;2167;53.448;9.984;2022-12-18T08:33:50;-5.60;13.90
4308;DHT22;2167;53.448;9.984;2022-12-18T08:36:16;-5.50;13.70
4308;DHT22;2167;53.448;9.984;2022-12-18T08:38:44;-5.50;13.30
4308;DHT22;2167;53.448;9.984;2022-12-18T08:41:11;-5.50;13.10
4308;DHT22;2167;53.448;9.984;2022-12-18T08:43:39;-5.50;13.20
4308;DHT22;2167;53.448;9.984;2022-12-18T08:46:26;-5.40;13.10
4308;DHT22;2167;53.448;9.984;2022-12-18T08:48:57;-5.40;13.00
4308;DHT22;2167;53.448;9.984;2022-12-18T08:51:23;-5.30;12.80
4308;DHT22;2167;53.448;9.984;2022-12-18T08:53:52;-5.20;12.50
4308;DHT22;2167;53.448;9.984;2022-12-18T08:56:20;-5.20;12.20
4308;DHT22;2167;53.448;9.984;2022-12-18T08:58:46;-5.20;12.30
4308;DHT22;2167;53.448;9.984;2022-12-18T09:01:12;-5.20;12.50
4308;DHT22;2167;53.448;9.984;2022-12-18T09:03:40;-5.10;12.10
4308;DHT22;2167;53.448;9.984;2022-12-18T09:06:07;-5.10;12.20
4308;DHT22;2167;53.448;9.984;2022-12-18T09:08:36;-5.10;12.70
4308;DHT22;2167;53.448;9.984;2022-12-18T09:11:02;-4.90;13.30
4308;DHT22;2167;53.448;9.984;2022-12-18T09:13:28;-4.90;13.10
4308;DHT22;2167;53.448;9.984;2022-12-18T09:15:54;-4.80;13.10
4308;DHT22;2167;53.448;9.984;2022-12-18T09:18:24;-4.60;13.20
4308;DHT22;2167;53.448;9.984;2022-12-18T09:20:50;-4.40;12.50
4308;DHT22;2167;53.448;9.984;2022-12-18T09:23:17;-4.40;11.60
4308;DHT22;2167;53.448;9.984;2022-12-18T09:25:43;-4.30;11.20
4308;DHT22;2167;53.448;9.984;2022-12-18T09:28:15;-4.10;10.90
4308;DHT22;2167;53.448;9.984;2022-12-18T09:30:47;-4.10;10.50
4308;DHT22;2167;53.448;9.984;2022-12-18T09:33:17;-4.10;10.40
4308;DHT22;2167;53.448;9.984;2022-12-18T09:35:44;-4.00;10.60
4308;DHT22;2167;53.448;9.984;2022-12-18T09:38:16;-3.90;10.90
4308;DHT22;2167;53.448;9.984;2022-12-18T09:40:52;-3.90;10.90
4308;DHT22;2167;53.448;9.984;2022-12-18T09:45:57;-3.70;10.20
4308;DHT22;2167;53.448;9.984;2022-12-18T09:48:46;-3.70;10.10
4308;DHT22;2167;53.448;9.984;2022-12-18T09:51:20;-3.60;9.90
4308;DHT22;2167;53.448;9.984;2022-12-18T09:53:57;-3.50;9.30
4308;DHT22;2167;53.448;9.984;2022-12-18T09:56:25;-3.40;8.80
4308;DHT22;2167;53.448;9.984;2022-12-18T09:59:00;-3.30;7.60
4308;DHT22;2167;53.448;9.984;2022-12-18T10:01:28;-3.20;6.70
4308;DHT22;2167;53.448;9.984;2022-12-18T10:03:54;-3.10;6.30
4308;DHT22;2167;53.448;9.984;2022-12-18T10:06:41;-2.90;5.60
4308;DHT22;2167;53.448;9.984;2022-12-18T10:12:24;-2.90;5.40
4308;DHT22;2167;53.448;9.984;2022-12-18T10:18:21;-2.70;6.10
4308;DHT22;2167;53.448;9.984;2022-12-18T10:20:58;-2.60;5.90
4308;DHT22;2167;53.448;9.984;2022-12-18T10:23:33;-2.60;5.00
4308;DHT22;2167;53.448;9.984;2022-12-18T10:26:05;-2.50;4.90
4308;DHT22;2167;53.448;9.984;2022-12-18T10:28:34;-2.50;4.90
4308;DHT22;2167;53.448;9.984;2022-12-18T10:31:01;-2.40;5.10
4308;DHT22;2167;53.448;9.984;2022-12-18T10:33:33;-2.40;5.40
4308;DHT22;2167;53.448;9.984;2022-12-18T10:35:59;-2.30;5.50
4308;DHT22;2167;53.448;9.984;2022-12-18T10:38:30;-2.30;5.10
4308;DHT22;2167;53.448;9.984;2022-12-18T10:41:05;-2.30;4.90
4308;DHT22;2167;53.448;9.984;2022-12-18T10:46:02;-2.10;5.20
4308;DHT22;2167;53.448;9.984;2022-12-18T10:48:32;-2.00;4.90
4308;DHT22;2167;53.448;9.984;2022-12-18T10:50:59;-2.00;4.30
4308;DHT22;2167;53.448;9.984;2022-12-18T10:53:30;-2.00;4.00
4308;DHT22;2167;53.448;9.984;2022-12-18T10:56:03;-2.00;4.00
4308;DHT22;2167;53.448;9.984;2022-12-18T10:58:32;-2.00;4.00
4308;DHT22;2167;53.448;9.984;2022-12-18T11:01:11;-1.90;4.10
4308;DHT22;2167;53.448;9.984;2022-12-18T11:06:28;-1.90;2.90
4308;DHT22;2167;53.448;9.984;2022-12-18T11:09:02;-1.90;3.20
4308;DHT22;2167;53.448;9.984;2022-12-18T11:11:29;-1.90;4.20
4308;DHT22;2167;53.448;9.984;2022-12-18T11:14:24;-1.80;4.80
4308;DHT22;2167;53.448;9.984;2022-12-18T11:16:52;-1.80;4.20
4308;DHT22;2167;53.448;9.984;2022-12-18T11:21:57;-1.60;5.30
4308;DHT22;2167;53.448;9.984;2022-12-18T11:26:54;-1.60;5.70
4308;DHT22;2167;53.448;9.984;2022-12-18T11:29:27;-1.50;6.20
4308;DHT22;2167;53.448;9.984;2022-12-18T11:32:32;-1.40;6.00
4308;DHT22;2167;53.448;9.984;2022-12-18T11:35:23;-1.40;5.30
4308;DHT22;2167;53.448;9.984;2022-12-18T11:37:57;-1.40;5.50
4308;DHT22;2167;53.448;9.984;2022-12-18T11:40:35;-1.40;5.70
4308;DHT22;2167;53.448;9.984;2022-12-18T11:43:03;-1.40;5.70
4308;DHT22;2167;53.448;9.984;2022-12-18T11:45:34;-1.40;5.80
4308;DHT22;2167;53.448;9.984;2022-12-18T11:53:12;-1.40;7.00
4308;DHT22;2167;53.448;9.984;2022-12-18T11:55:44;-1.30;6.90
4308;DHT22;2167;53.448;9.984;2022-12-18T12:01:35;-1.20;6.60
4308;DHT22;2167;53.448;9.984;2022-12-18T12:04:18;-1.10;7.10
4308;DHT22;2167;53.448;9.984;2022-12-18T12:07:02;-1.00;6.30
4308;DHT22;2167;53.448;9.984;2022-12-18T12:12:51;-1.10;4.50
4308;DHT22;2167;53.448;9.984;2022-12-18T12:15:51;-1.10;4.40
4308;DHT22;2167;53.448;9.984;2022-12-18T12:18:34;-1.00;4.00
4308;DHT22;2167;53.448;9.984;2022-12-18T12:29:25;-1.10;3.60
4308;DHT22;2167;53.448;9.984;2022-12-18T12:37:33;-1.00;4.40
4308;DHT22;2167;53.448;9.984;2022-12-18T12:40:04;-0.90;4.10
4308;DHT22;2167;53.448;9.984;2022-12-18T12:42:43;-1.00;2.60
4308;DHT22;2167;53.448;9.984;2022-12-18T12:48:51;-1.10;1.80
4308;DHT22;2167;53.448;9.984;2022-12-18T12:51:19;-1.20;1.70
4308;DHT22;2167;53.448;9.984;2022-12-18T12:53:47;-1.30;1.90
4308;DHT22;2167;53.448;9.984;2022-12-18T12:56:15;-1.30;2.10
4308;DHT22;2167;53.448;9.984;2022-12-18T12:58:53;-1.30;2.40
4308;DHT22;2167;53.448;9.984;2022-12-18T13:15:45;-1.50;3.00
4308;DHT22;2167;53.448;9.984;2022-12-18T13:18:22;-1.60;3.00
4308;DHT22;2167;53.448;9.984;2022-12-18T13:31:13;-1.60;2.70
4308;DHT22;2167;53.448;9.984;2022-12-18T13:33:44;-1.60;2.50
4308;DHT22;2167;53.448;9.984;2022-12-18T13:38:47;-1.70;2.20
4308;DHT22;2167;53.448;9.984;2022-12-18T13:41:33;-1.80;2.30
4308;DHT22;2167;53.448;9.984;2022-12-18T13:46:55;-1.70;2.10
4308;DHT22;2167;53.448;9.984;2022-12-18T13:49:38;-1.80;2.00
4308;DHT22;2167;53.448;9.984;2022-12-18T13:52:26;-1.80;2.30
4308;DHT22;2167;53.448;9.984;2022-12-18T13:54:54;-1.80;2.70
4308;DHT22;2167;53.448;9.984;2022-12-18T13:57:36;-1.70;3.40
4308;DHT22;2167;53.448;9.984;2022-12-18T14:02:50;-1.70;2.00
4308;DHT22;2167;53.448;9.984;2022-12-18T14:05:30;-1.80;1.40
4308;DHT22;2167;53.448;9.984;2022-12-18T14:08:15;-1.80;1.50
4308;DHT22;2167;53.448;9.984;2022-12-18T14:10:45;-1.80;2.40
4308;DHT22;2167;53.448;9.984;2022-12-18T14:13:24;-1.70;2.60
4308;DHT22;2167;53.448;9.984;2022-12-18T14:15:52;-1.80;2.00
4308;DHT22;2167;53.448;9.984;2022-12-18T14:18:25;-1.80;1.70
4308;DHT22;2167;53.448;9.984;2022-12-18T14:20:54;-1.80;1.40
4308;DHT22;2167;53.448;9.984;2022-12-18T14:23:41;-1.90;1.60
4308;DHT22;2167;53.448;9.984;2022-12-18T14:26:39;-2.00;2.00
4308;DHT22;2167;53.448;9.984;2022-12-18T14:32:16;-2.00;2.50
4308;DHT22;2167;53.448;9.984;2022-12-18T14:34:50;-2.00;2.10
4308;DHT22;2167;53.448;9.984;2022-12-18T14:37:21;-2.10;1.80
4308;DHT22;2167;53.448;9.984;2022-12-18T14:39:58;-2.10;1.90
4308;DHT22;2167;53.448;9.984;2022-12-18T14:42:26;-2.20;1.50
4308;DHT22;2167;53.448;9.984;2022-12-18T14:47:58;-2.20;1.70
4308;DHT22;2167;53.448;9.984;2022-12-18T14:50:24;-2.20;1.70
4308;DHT22;2167;53.448;9.984;2022-12-18T14:52:50;-2.30;1.90
4308;DHT22;2167;53.448;9.984;2022-12-18T14:55:20;-2.30;2.00
4308;DHT22;2167;53.448;9.984;2022-12-18T14:57:52;-2.30;2.30
4308;DHT22;2167;53.448;9.984;2022-12-18T15:00:21;-2.30;2.30
4308;DHT22;2167;53.448;9.984;2022-12-18T15:02:50;-2.40;2.60
4308;DHT22;2167;53.448;9.984;2022-12-18T15:05:19;-2.40;2.20
4308;DHT22;2167;53.448;9.984;2022-12-18T15:07:49;-2.50;2.10
4308;DHT22;2167;53.448;9.984;2022-12-18T15:10:31;-2.50;2.70
4308;DHT22;2167;53.448;9.984;2022-12-18T15:20:27;-2.70;4.30
4308;DHT22;2167;53.448;9.984;2022-12-18T15:22:52;-2.60;4.60
4308;DHT22;2167;53.448;9.984;2022-12-18T15:25:32;-2.70;4.50
4308;DHT22;2167;53.448;9.984;2022-12-18T15:27:59;-2.70;4.50
4308;DHT22;2167;53.448;9.984;2022-12-18T15:30:26;-2.70;4.30
4308;DHT22;2167;53.448;9.984;2022-12-18T15:33:15;-2.70;4.50
4308;DHT22;2167;53.448;9.984;2022-12-18T15:35:38;-2.80;4.70
4308;DHT22;2167;53.448;9.984;2022-12-18T15:38:04;-2.90;5.00
4308;DHT22;2167;53.448;9.984;2022-12-18T15:40:30;-2.80;6.20
4308;DHT22;2167;53.448;9.984;2022-12-18T15:42:59;-2.80;5.90
4308;DHT22;2167;53.448;9.984;2022-12-18T15:45:44;-2.80;6.00
4308;DHT22;2167;53.448;9.984;2022-12-18T15:48:21;-2.70;6.40
4308;DHT22;2167;53.448;9.984;2022-12-18T15:50:46;-2.70;6.50
4308;DHT22;2167;53.448;9.984;2022-12-18T15:53:12;-2.70;6.30
4308;DHT22;2167;53.448;9.984;2022-12-18T15:55:38;-2.60;6.30
4308;DHT22;2167;53.448;9.984;2022-12-18T15:58:22;-2.60;5.50
4308;DHT22;2167;53.448;9.984;2022-12-18T16:00:48;-2.60;5.80
4308;DHT22;2167;53.448;9.984;2022-12-18T16:03:13;-2.60;6.00
4308;DHT22;2167;53.448;9.984;2022-12-18T16:05:39;-2.60;6.40
4308;DHT22;2167;53.448;9.984;2022-12-18T16:08:05;-2.60;6.50
4308;DHT22;2167;53.448;9.984;2022-12-18T16:10:30;-2.60;6.50
4308;DHT22;2167;53.448;9.984;2022-12-18T16:12:56;-2.60;6.30
4308;DHT22;2167;53.448;9.984;2022-12-18T16:15:22;-2.60;6.30
4308;DHT22;2167;53.448;9.984;2022-12-18T16:17:48;-2.60;6.30
4308;DHT22;2167;53.448;9.984;2022-12-18T16:20:15;-2.60;6.70
4308;DHT22;2167;53.448;9.984;2022-12-18T16:22:42;-2.70;6.90
4308;DHT22;2167;53.448;9.984;2022-12-18T16:25:18;-2.60;7.30
4308;DHT22;2167;53.448;9.984;2022-12-18T16:27:47;-2.60;7.20
4308;DHT22;2167;53.448;9.984;2022-12-18T16:30:15;-2.60;7.20
4308;DHT22;2167;53.448;9.984;2022-12-18T16:32:41;-2.60;7.30
4308;DHT22;2167;53.448;9.984;2022-12-18T16:35:09;-2.60;7.70
4308;DHT22;2167;53.448;9.984;2022-12-18T16:37:36;-2.60;7.50
4308;DHT22;2167;53.448;9.984;2022-12-18T16:40:07;-2.60;7.40
4308;DHT22;2167;53.448;9.984;2022-12-18T16:42:37;-2.60;7.80
4308;DHT22;2167;53.448;9.984;2022-12-18T16:45:04;-2.70;8.40
4308;DHT22;2167;53.448;9.984;2022-12-18T16:47:30;-2.80;9.00
4308;DHT22;2167;53.448;9.984;2022-12-18T16:49:57;-2.80;9.30
4308;DHT22;2167;53.448;9.984;2022-12-18T16:52:23;-2.90;9.70
4308;DHT22;2167;53.448;9.984;2022-12-18T16:54:48;-2.80;10.40
4308;DHT22;2167;53.448;9.984;2022-12-18T16:57:16;-2.80;10.80
4308;DHT22;2167;53.448;9.984;2022-12-18T16:59:42;-2.80;11.00
4308;DHT22;2167;53.448;9.984;2022-12-18T17:02:19;-2.70;11.00
4308;DHT22;2167;53.448;9.984;2022-12-18T17:04:45;-2.80;10.80
4308;DHT22;2167;53.448;9.984;2022-12-18T17:07:12;-2.70;10.70
4308;DHT22;2167;53.448;9.984;2022-12-18T17:09:38;-2.70;10.30
4308;DHT22;2167;53.448;9.984;2022-12-18T17:12:04;-2.80;10.30
4308;DHT22;2167;53.448;9.984;2022-12-18T17:14:35;-2.80;10.60
4308;DHT22;2167;53.448;9.984;2022-12-18T17:17:01;-2.80;10.80
4308;DHT22;2167;53.448;9.984;2022-12-18T17:19:27;-2.70;11.00
4308;DHT22;2167;53.448;9.984;2022-12-18T17:21:53;-2.80;11.10
4308;DHT22;2167;53.448;9.984;2022-12-18T17:24:21;-2.80;11.40
4308;DHT22;2167;53.448;9.984;2022-12-18T17:26:47;-2.70;12.00
4308;DHT22;2167;53.448;9.984;2022-12-18T17:29:15;-2.60;11.60
4308;DHT22;2167;53.448;9.984;2022-12-18T17:31:41;-2.50;11.20
4308;DHT22;2167;53.448;9.984;2022-12-18T17:34:09;-2.50;10.70
4308;DHT22;2167;53.448;9.984;2022-12-18T17:36:35;-2.50;9.80
4308;DHT22;2167;53.448;9.984;2022-12-18T17:39:01;-2.60;9.30
4308;DHT22;2167;53.448;9.984;2022-12-18T17:41:28;-2.60;9.50
4308;DHT22;2167;53.448;9.984;2022-12-18T17:43:56;-2.60;10.10
4308;DHT22;2167;53.448;9.984;2022-12-18T17:46:23;-2.50;9.50
4308;DHT22;2167;53.448;9.984;2022-12-18T17:48:50;-2.50;9.40
4308;DHT22;2167;53.448;9.984;2022-12-18T17:51:16;-2.50;9.20
4308;DHT22;2167;53.448;9.984;2022-12-18T17:53:42;-2.40;9.00
4308;DHT22;2167;53.448;9.984;2022-12-18T17:56:13;-2.40;8.60
4308;DHT22;2167;53.448;9.984;2022-12-18T17:58:41;-2.50;7.60
4308;DHT22;2167;53.448;9.984;2022-12-18T18:01:08;-2.40;7.70
4308;DHT22;2167;53.448;9.984;2022-12-18T18:03:35;-2.50;7.80
4308;DHT22;2167;53.448;9.984;2022-12-18T18:06:02;-2.50;8.10
4308;DHT22;2167;53.448;9.984;2022-12-18T18:08:28;-2.50;7.60
4308;DHT22;2167;53.448;9.984;2022-12-18T18:10:56;-2.50;7.30
4308;DHT22;2167;53.448;9.984;2022-12-18T18:13:42;-2.50;7.70
4308;DHT22;2167;53.448;9.984;2022-12-18T18:16:39;-2.60;7.70
4308;DHT22;2167;53.448;9.984;2022-12-18T18:19:07;-2.60;8.20
4308;DHT22;2167;53.448;9.984;2022-12-18T18:21:38;-2.50;7.90
4308;DHT22;2167;53.448;9.984;2022-12-18T18:24:05;-2.50;7.80
4308;DHT22;2167;53.448;9.984;2022-12-18T18:26:33;-2.50;7.40
4308;DHT22;2167;53.448;9.984;2022-12-18T18:29:00;-2.50;6.90
4308;DHT22;2167;53.448;9.984;2022-12-18T18:31:28;-2.50;6.80